createdAt,value
2023-05-13T00:00:42.112Z,15.43
2023-05-13T00:03:09.822Z,13.60
2023-05-13T00:05:38.454Z,13.52
2023-05-13T00:08:07.980Z,13.93
2023-05-13T00:10:35.999Z,14.73
2023-05-13T00:13:03.703Z,15.23
2023-05-13T00:15:31.320Z,15.05
2023-05-13T00:17:58.996Z,14.50
2023-05-13T00:20:26.689Z,14.10
2023-05-13T00:22:54.301Z,15.80
2023-05-13T00:25:23.239Z,13.60
2023-05-13T00:27:51.265Z,13.75
2023-05-13T00:30:18.995Z,15.20
2023-05-13T00:32:46.711Z,14.32
2023-05-13T00:35:14.432Z,14.05
2023-05-13T00:37:42.192Z,14.15
2023-05-13T00:40:18.084Z,14.65
2023-05-13T00:42:47.074Z,13.88
2023-05-13T00:45:15.038Z,14.38
2023-05-13T00:47:43.052Z,14.73
2023-05-13T00:50:11.573Z,13.48
2023-05-13T00:52:40.140Z,14.13
2023-05-13T00:55:09.128Z,13.80
2023-05-13T00:57:37.305Z,14.30
2023-05-13T01:00:07.928Z,14.43
2023-05-13T01:02:40.625Z,14.52
2023-05-13T01:05:15.354Z,15.05
2023-05-13T01:07:47.747Z,14.98
2023-05-13T01:10:21.944Z,13.65
2023-05-13T01:12:54.153Z,15.43
2023-05-13T01:15:25.357Z,15.32
2023-05-13T01:17:58.664Z,15.13
2023-05-13T01:20:28.394Z,15.15
2023-05-13T01:22:57.576Z,16.17
2023-05-13T01:25:26.122Z,15.27
2023-05-13T01:27:53.807Z,15.77
2023-05-13T01:30:22.023Z,13.95
2023-05-13T01:32:50.447Z,14.98
2023-05-13T01:35:18.834Z,15.80
2023-05-13T01:37:46.468Z,15.30
2023-05-13T01:40:31.239Z,17.88
2023-05-13T01:42:59.760Z,16.50
2023-05-13T01:45:28.915Z,15.90
2023-05-13T01:47:56.641Z,16.25
2023-05-13T01:50:24.569Z,16.10
2023-05-13T01:52:52.388Z,15.85
2023-05-13T01:55:21.405Z,16.40
2023-05-13T01:57:49.182Z,15.93
2023-05-13T02:00:17.582Z,15.73
2023-05-13T02:02:46.970Z,15.63
2023-05-13T02:05:14.776Z,15.80
2023-05-13T02:07:42.552Z,15.43
2023-05-13T02:10:11.124Z,15.63
2023-05-13T02:12:40.295Z,15.88
2023-05-13T02:15:08.716Z,15.35
2023-05-13T02:17:36.364Z,16.55
2023-05-13T02:20:04.211Z,16.67
2023-05-13T02:22:31.816Z,15.90
2023-05-13T02:24:59.403Z,17.15
2023-05-13T02:27:27.046Z,17.23
2023-05-13T02:29:55.977Z,17.02
2023-05-13T02:32:23.570Z,16.77
2023-05-13T02:34:51.178Z,17.77
2023-05-13T02:37:18.789Z,18.52
2023-05-13T02:39:46.370Z,18.30
2023-05-13T02:42:13.974Z,19.05
2023-05-13T02:44:41.595Z,19.13
2023-05-13T02:47:10.577Z,18.33
2023-05-13T02:49:38.197Z,18.48
2023-05-13T02:52:06.643Z,19.60
2023-05-13T02:54:34.224Z,18.25
2023-05-13T02:57:01.850Z,17.77
2023-05-13T02:59:29.436Z,18.55
2023-05-13T03:01:57.022Z,20.25
2023-05-13T03:04:26.166Z,19.23
2023-05-13T03:06:54.018Z,20.58
2023-05-13T03:09:21.634Z,18.65
2023-05-13T03:11:49.403Z,20.48
2023-05-13T03:14:17.106Z,19.98
2023-05-13T03:16:45.823Z,19.98
2023-05-13T03:19:13.490Z,19.88
2023-05-13T03:21:42.473Z,20.38
2023-05-13T03:24:10.069Z,19.67
2023-05-13T03:26:37.696Z,20.02
2023-05-13T03:29:05.337Z,18.80
2023-05-13T03:31:33.150Z,21.33
2023-05-13T03:34:00.865Z,21.08
2023-05-13T03:36:28.433Z,20.85
2023-05-13T03:38:57.354Z,21.48
2023-05-13T03:41:24.971Z,20.80
2023-05-13T03:43:52.572Z,20.75
2023-05-13T03:46:20.184Z,19.58
2023-05-13T03:48:47.828Z,20.90
2023-05-13T03:51:15.646Z,21.00
2023-05-13T03:53:43.293Z,21.38
2023-05-13T03:56:12.268Z,20.60
2023-05-13T03:58:39.924Z,22.20
2023-05-13T04:01:07.973Z,20.77
2023-05-13T04:03:35.927Z,21.20
2023-05-13T04:06:03.530Z,20.80
2023-05-13T04:08:31.147Z,21.10
2023-05-13T04:10:58.736Z,21.92
2023-05-13T04:13:27.754Z,20.88
2023-05-13T04:15:55.430Z,21.58
2023-05-13T04:18:23.103Z,20.67
2023-05-13T04:20:50.709Z,22.02
2023-05-13T04:23:18.357Z,21.00
2023-05-13T04:25:51.614Z,21.67
2023-05-13T04:28:19.310Z,21.40
2023-05-13T04:30:48.317Z,21.80
2023-05-13T04:33:16.644Z,21.67
2023-05-13T04:35:44.259Z,22.35
2023-05-13T04:38:13.136Z,22.58
2023-05-13T04:40:40.738Z,22.90
2023-05-13T04:43:08.377Z,22.48
2023-05-13T04:45:37.007Z,22.95
2023-05-13T04:48:06.421Z,22.30
2023-05-13T04:50:34.110Z,21.67
2023-05-13T04:53:02.216Z,22.17
2023-05-13T04:55:29.973Z,22.40
2023-05-13T04:57:57.619Z,23.45
2023-05-13T05:00:25.296Z,22.15
2023-05-13T05:02:52.993Z,22.58
2023-05-13T05:05:21.919Z,23.92
2023-05-13T05:07:49.524Z,23.33
2023-05-13T05:10:17.289Z,22.73
2023-05-13T05:12:44.891Z,21.67
2023-05-13T05:15:15.725Z,23.55
2023-05-13T05:17:43.657Z,23.67
2023-05-13T05:20:13.362Z,23.60
2023-05-13T05:22:42.865Z,22.13
2023-05-13T05:25:11.645Z,21.73
2023-05-13T05:27:39.370Z,22.13
2023-05-13T05:30:08.180Z,22.60
2023-05-13T05:32:36.012Z,21.90
2023-05-13T05:35:03.957Z,21.77
2023-05-13T05:37:31.944Z,21.42
2023-05-13T05:40:00.853Z,21.85
2023-05-13T05:42:28.497Z,21.85
2023-05-13T05:44:56.092Z,21.92
2023-05-13T05:47:23.792Z,21.20
2023-05-13T05:49:51.418Z,21.42
2023-05-13T05:52:19.112Z,21.50
2023-05-13T05:54:46.753Z,20.52
2023-05-13T05:57:15.729Z,22.15
2023-05-13T05:59:43.341Z,21.05
2023-05-13T06:02:11.182Z,22.50
2023-05-13T06:04:38.930Z,21.98
2023-05-13T06:07:07.419Z,21.27
2023-05-13T06:09:35.029Z,21.30
2023-05-13T06:12:02.722Z,20.30
2023-05-13T06:14:31.651Z,22.27
2023-05-13T06:16:59.320Z,20.90
2023-05-13T06:19:26.933Z,20.92
2023-05-13T06:21:54.631Z,20.92
2023-05-13T06:24:22.246Z,22.30
2023-05-13T06:26:49.881Z,21.33
2023-05-13T06:29:17.807Z,21.48
2023-05-13T06:31:46.866Z,22.77
2023-05-13T06:34:16.679Z,19.88
2023-05-13T06:36:44.796Z,21.92
2023-05-13T06:39:13.401Z,20.25
2023-05-13T06:41:41.384Z,20.17
2023-05-13T06:44:09.047Z,20.90
2023-05-13T06:46:36.705Z,20.08
2023-05-13T06:49:05.748Z,20.27
2023-05-13T06:51:34.866Z,19.77
2023-05-13T06:54:02.525Z,21.33
2023-05-13T06:56:30.956Z,21.45
2023-05-13T06:58:58.520Z,18.58
2023-05-13T07:01:27.914Z,18.67
2023-05-13T07:03:55.706Z,19.20
2023-05-13T07:06:24.733Z,18.42
2023-05-13T07:08:52.358Z,19.38
2023-05-13T07:11:20.009Z,19.02
2023-05-13T07:13:47.784Z,19.02
2023-05-13T07:16:15.539Z,18.42
2023-05-13T07:18:43.346Z,17.98
2023-05-13T07:21:11.135Z,18.45
2023-05-13T07:23:40.082Z,17.40
2023-05-13T07:26:07.704Z,17.75
2023-05-13T07:28:35.311Z,19.05
2023-05-13T07:31:02.960Z,17.67
2023-05-13T07:33:31.393Z,17.73
2023-05-13T07:35:59.050Z,18.20
2023-05-13T07:38:26.709Z,17.67
2023-05-13T07:40:55.958Z,18.48
2023-05-13T07:43:24.154Z,17.70
2023-05-13T07:45:51.825Z,17.35
2023-05-13T07:48:19.628Z,18.45
2023-05-13T07:50:47.371Z,18.63
2023-05-13T07:53:15.473Z,19.05
2023-05-13T07:55:44.214Z,18.52
2023-05-13T07:58:13.211Z,16.60
2023-05-13T08:00:40.925Z,18.52
2023-05-13T08:03:08.687Z,19.25
2023-05-13T08:05:36.621Z,19.20
2023-05-13T08:08:04.478Z,18.75
2023-05-13T08:10:32.088Z,19.73
2023-05-13T08:13:00.986Z,19.50
2023-05-13T08:15:29.952Z,18.10
2023-05-13T08:17:57.667Z,17.77
2023-05-13T08:20:29.639Z,19.05
2023-05-13T08:22:58.193Z,18.50
2023-05-13T08:25:26.038Z,18.67
2023-05-13T08:27:53.637Z,18.65
2023-05-13T08:30:21.206Z,17.30
2023-05-13T08:32:50.207Z,18.20
2023-05-13T08:35:17.870Z,17.65
2023-05-13T08:37:45.515Z,17.90
2023-05-13T08:40:13.353Z,18.67
2023-05-13T08:42:44.967Z,18.65
2023-05-13T08:45:12.778Z,18.63
2023-05-13T08:47:46.512Z,18.58
2023-05-13T08:50:15.992Z,19.40
2023-05-13T08:52:44.633Z,18.00
2023-05-13T08:55:12.388Z,19.67
2023-05-13T08:57:40.458Z,17.60
2023-05-13T09:00:09.216Z,17.77
2023-05-13T09:02:36.843Z,18.13
2023-05-13T09:05:07.392Z,24.15
2023-05-13T09:07:36.965Z,17.35
2023-05-13T09:10:04.815Z,18.08
2023-05-13T09:12:48.987Z,18.52
2023-05-13T09:15:17.948Z,25.30
2023-05-13T09:17:46.650Z,18.63
2023-05-13T09:20:16.129Z,19.98
2023-05-13T09:22:48.484Z,20.02
2023-05-13T09:25:17.051Z,20.00
2023-05-13T09:27:47.324Z,19.67
2023-05-13T09:30:15.056Z,19.77
2023-05-13T09:32:43.264Z,19.85
2023-05-13T09:35:16.517Z,20.33
2023-05-13T09:37:47.716Z,19.92
2023-05-13T09:40:16.960Z,22.33
2023-05-13T09:42:45.605Z,20.77
2023-05-13T09:45:14.765Z,21.70
2023-05-13T09:47:42.723Z,19.80
2023-05-13T09:50:11.317Z,19.50
2023-05-13T09:52:39.932Z,20.92
2023-05-13T09:55:11.076Z,21.25
2023-05-13T09:57:40.795Z,22.33
2023-05-13T10:00:17.982Z,22.98
2023-05-13T10:02:52.967Z,20.35
2023-05-13T10:05:20.702Z,20.55
2023-05-13T10:07:48.336Z,22.25
2023-05-13T10:10:17.301Z,20.73
2023-05-13T10:12:45.063Z,22.92
2023-05-13T10:15:12.831Z,21.73
2023-05-13T10:17:40.931Z,21.50
2023-05-13T10:20:08.904Z,21.13
2023-05-13T10:22:37.210Z,20.38
2023-05-13T10:25:05.784Z,21.45
2023-05-13T10:27:34.853Z,21.27
2023-05-13T10:30:05.008Z,21.58
2023-05-13T10:32:32.724Z,23.52
2023-05-13T10:35:04.075Z,23.02
2023-05-13T10:37:58.400Z,19.87
2023-05-13T10:41:04.078Z,18.35
2023-05-13T10:43:33.702Z,18.77
2023-05-13T10:46:02.521Z,18.60
2023-05-13T10:48:40.092Z,16.92
2023-05-13T10:51:08.828Z,17.17
2023-05-13T10:53:38.708Z,19.20
2023-05-13T10:56:08.045Z,17.25
2023-05-13T10:58:38.264Z,17.33
2023-05-13T11:01:17.829Z,18.63
2023-05-13T11:03:53.900Z,16.05
2023-05-13T11:06:23.604Z,15.65
2023-05-13T11:08:55.935Z,16.50
2023-05-13T11:11:27.418Z,20.17
2023-05-13T11:13:57.721Z,17.00
2023-05-13T11:16:25.522Z,15.48
2023-05-13T11:18:53.811Z,14.93
2023-05-13T11:21:31.085Z,16.52
2023-05-13T11:24:00.049Z,16.85
2023-05-13T11:26:27.788Z,17.40
2023-05-13T11:28:58.459Z,17.48
2023-05-13T11:31:28.785Z,17.63
2023-05-13T11:34:10.494Z,18.27
2023-05-13T11:36:39.770Z,16.98
2023-05-13T11:39:11.057Z,17.75
2023-05-13T11:41:40.926Z,16.73
2023-05-13T11:44:10.410Z,17.23
2023-05-13T11:46:38.070Z,17.05
2023-05-13T11:49:07.401Z,18.75
2023-05-13T11:51:35.398Z,17.85
2023-05-13T11:54:04.185Z,17.85
2023-05-13T11:56:32.165Z,17.80
2023-05-13T11:59:16.628Z,18.35
2023-05-13T12:01:44.793Z,20.95
2023-05-13T12:04:12.620Z,17.17
2023-05-13T12:06:46.126Z,16.92
2023-05-13T12:09:13.902Z,17.98
2023-05-13T12:11:42.274Z,17.02
2023-05-13T12:14:10.175Z,17.38
2023-05-13T12:16:39.138Z,16.02
2023-05-13T12:19:07.211Z,16.17
2023-05-13T12:21:35.401Z,16.63
2023-05-13T12:24:03.641Z,14.93
2023-05-13T12:26:31.702Z,16.38
2023-05-13T12:29:00.153Z,15.50
2023-05-13T12:31:27.921Z,15.55
2023-05-13T12:33:56.898Z,14.90
2023-05-13T12:36:32.095Z,14.63
2023-05-13T12:39:01.280Z,18.17
2023-05-13T12:41:30.702Z,15.57
2023-05-13T12:44:00.041Z,15.93
2023-05-13T12:46:27.908Z,21.30
2023-05-13T12:48:59.104Z,16.80
2023-05-13T12:51:27.109Z,18.30
2023-05-13T12:53:55.650Z,15.52
2023-05-13T12:56:23.604Z,16.42
2023-05-13T12:58:52.018Z,13.65
2023-05-13T13:01:20.060Z,14.10
2023-05-13T13:03:47.745Z,14.45
2023-05-13T13:06:17.324Z,13.93
2023-05-13T13:08:44.942Z,14.55
2023-05-13T13:11:14.961Z,13.98
2023-05-13T13:13:42.638Z,13.75
2023-05-13T13:16:10.291Z,13.73
2023-05-13T13:18:37.974Z,14.45
2023-05-13T13:21:07.460Z,13.30
2023-05-13T13:23:36.403Z,14.13
2023-05-13T13:26:04.302Z,14.60
2023-05-13T13:28:32.134Z,14.35
2023-05-13T13:31:00.170Z,15.43
2023-05-13T13:33:28.334Z,14.82
2023-05-13T13:35:55.975Z,15.27
2023-05-13T13:38:23.618Z,14.85
2023-05-13T13:40:52.549Z,14.90
2023-05-13T13:43:20.221Z,15.77
2023-05-13T13:45:48.015Z,16.38
2023-05-13T13:48:15.844Z,14.73
2023-05-13T13:50:44.921Z,14.88
2023-05-13T13:53:14.357Z,14.07
2023-05-13T13:55:41.970Z,15.55
2023-05-13T13:58:10.883Z,13.82
2023-05-13T14:00:38.613Z,13.85
2023-05-13T14:03:06.338Z,14.63
2023-05-13T14:05:34.057Z,17.33
2023-05-13T14:08:01.634Z,13.27
2023-05-13T14:10:29.281Z,13.30
2023-05-13T14:12:56.830Z,14.27
2023-05-13T14:15:28.732Z,13.27
2023-05-13T14:17:56.551Z,13.85
2023-05-13T14:20:24.914Z,14.45
2023-05-13T14:22:52.553Z,13.07
2023-05-13T14:25:20.164Z,13.07
2023-05-13T14:27:47.769Z,13.02
2023-05-13T14:30:15.499Z,13.30
2023-05-13T14:32:45.060Z,12.77
2023-05-13T14:35:12.866Z,13.05
2023-05-13T14:37:40.449Z,13.05
2023-05-13T14:40:09.621Z,13.13
2023-05-13T14:42:37.263Z,13.90
2023-05-13T14:45:05.997Z,13.48
2023-05-13T14:47:33.854Z,13.02
2023-05-13T14:50:02.898Z,14.18
2023-05-13T14:52:30.575Z,14.82
2023-05-13T14:54:58.172Z,12.48
2023-05-13T14:57:26.740Z,13.27
2023-05-13T14:59:54.282Z,12.00
2023-05-13T15:02:21.951Z,12.73
2023-05-13T15:04:49.692Z,12.50
2023-05-13T15:07:18.830Z,13.43
2023-05-13T15:09:46.421Z,12.73
2023-05-13T15:12:14.049Z,19.15
2023-05-13T15:14:41.630Z,13.02
2023-05-13T15:17:11.838Z,14.10
2023-05-13T15:19:39.699Z,12.98
2023-05-13T15:22:07.300Z,12.73
2023-05-13T15:24:37.349Z,12.13
2023-05-13T15:27:05.149Z,12.23
2023-05-13T15:29:32.876Z,12.48
2023-05-13T15:32:00.523Z,13.38
2023-05-13T15:34:28.182Z,14.00
2023-05-13T15:36:55.786Z,12.13
2023-05-13T15:39:23.370Z,11.43
2023-05-13T15:41:52.368Z,11.85
2023-05-13T15:44:21.316Z,11.30
2023-05-13T15:46:49.844Z,12.65
2023-05-13T15:49:17.649Z,12.07
2023-05-13T15:51:45.612Z,12.75
2023-05-13T15:54:13.305Z,12.73
2023-05-13T15:56:40.882Z,12.10
2023-05-13T15:59:09.816Z,11.77
2023-05-13T16:01:39.231Z,12.52
2023-05-13T16:04:06.950Z,13.05
2023-05-13T16:06:34.713Z,12.48
2023-05-13T16:09:03.972Z,12.50
2023-05-13T16:11:31.635Z,12.43
2023-05-13T16:13:59.519Z,12.02
2023-05-13T16:16:28.634Z,11.90
2023-05-13T16:18:56.354Z,12.73
2023-05-13T16:21:24.140Z,12.18
2023-05-13T16:23:51.788Z,12.65
2023-05-13T16:26:19.419Z,13.02
2023-05-13T16:28:47.023Z,12.32
2023-05-13T16:31:14.650Z,12.77
2023-05-13T16:33:43.529Z,12.32
2023-05-13T16:36:11.884Z,12.18
2023-05-13T16:38:41.282Z,13.50
2023-05-13T16:41:09.003Z,13.73
2023-05-13T16:43:36.619Z,14.00
2023-05-13T16:46:04.372Z,12.93
2023-05-13T16:48:31.996Z,12.88
2023-05-13T16:51:01.096Z,12.70
2023-05-13T16:53:28.683Z,12.32
2023-05-13T16:55:56.305Z,12.27
2023-05-13T16:58:23.974Z,12.23
2023-05-13T17:00:52.369Z,12.05
2023-05-13T17:03:20.153Z,11.98
2023-05-13T17:05:47.841Z,12.27
2023-05-13T17:08:18.845Z,12.57
2023-05-13T17:10:46.491Z,11.48
2023-05-13T17:13:14.088Z,11.88
2023-05-13T17:15:41.715Z,11.80
2023-05-13T17:18:09.309Z,11.70
2023-05-13T17:20:36.958Z,12.20
2023-05-13T17:23:04.569Z,11.73
2023-05-13T17:25:33.545Z,12.70
2023-05-13T17:28:01.158Z,12.30
2023-05-13T17:30:28.771Z,12.02
2023-05-13T17:32:56.452Z,12.02
2023-05-13T17:35:24.100Z,11.63
2023-05-13T17:37:51.674Z,11.63
2023-05-13T17:40:19.271Z,11.85
2023-05-13T17:42:48.211Z,13.32
2023-05-13T17:45:15.925Z,12.00
2023-05-13T17:47:43.598Z,12.32
2023-05-13T17:50:13.218Z,13.40
2023-05-13T17:52:41.407Z,12.57
2023-05-13T17:55:09.929Z,12.32
2023-05-13T17:57:37.573Z,12.98
2023-05-13T18:00:08.232Z,13.38
2023-05-13T18:02:36.167Z,12.27
2023-05-13T18:05:03.925Z,12.02
2023-05-13T18:07:31.699Z,12.60
2023-05-13T18:09:59.513Z,11.95
2023-05-13T18:12:27.176Z,11.77
2023-05-13T18:14:54.825Z,11.55
2023-05-13T18:17:23.802Z,11.88
2023-05-13T18:19:51.733Z,11.48
2023-05-13T18:22:19.387Z,11.25
2023-05-13T18:24:47.629Z,12.18
2023-05-13T18:27:15.303Z,11.35
2023-05-13T18:29:42.922Z,11.73
2023-05-13T18:32:10.554Z,11.68
2023-05-13T18:34:39.508Z,10.65
2023-05-13T18:37:07.336Z,10.52
2023-05-13T18:39:34.941Z,11.32
2023-05-13T18:42:02.584Z,12.75
2023-05-13T18:44:30.613Z,11.30
2023-05-13T18:46:58.190Z,11.02
2023-05-13T18:49:27.321Z,11.38
2023-05-13T18:51:56.287Z,13.07
2023-05-13T18:54:25.662Z,12.82
2023-05-13T18:56:53.279Z,12.45
2023-05-13T18:59:20.927Z,11.63
2023-05-13T19:01:48.666Z,11.90
2023-05-13T19:04:16.530Z,12.40
2023-05-13T19:06:44.266Z,11.55
2023-05-13T19:09:13.260Z,11.73
2023-05-13T19:11:41.006Z,10.52
2023-05-13T19:14:08.655Z,10.60
2023-05-13T19:16:36.341Z,10.85
2023-05-13T19:19:04.119Z,11.02
2023-05-13T19:21:31.749Z,10.05
2023-05-13T19:23:59.521Z,10.20
2023-05-13T19:26:28.506Z,11.55
2023-05-13T19:28:56.320Z,10.80
2023-05-13T19:31:24.597Z,11.63
2023-05-13T19:33:52.324Z,9.77
2023-05-13T19:36:19.934Z,10.85
2023-05-13T19:38:47.564Z,12.00
2023-05-13T19:41:15.159Z,11.63
2023-05-13T19:43:44.125Z,11.05
2023-05-13T19:46:11.967Z,11.10
2023-05-13T19:48:39.570Z,11.65
2023-05-13T19:51:07.159Z,11.65
2023-05-13T19:53:34.784Z,11.23
2023-05-13T19:56:02.487Z,11.52
2023-05-13T19:58:30.142Z,11.55
2023-05-13T20:00:59.204Z,11.23
2023-05-13T20:03:27.068Z,11.85
2023-05-13T20:05:54.760Z,11.93
2023-05-13T20:08:22.934Z,12.30
2023-05-13T20:10:50.634Z,12.27
2023-05-13T20:13:18.240Z,12.05
2023-05-13T20:15:45.894Z,12.75
2023-05-13T20:18:14.907Z,12.45
2023-05-13T20:20:42.583Z,13.55
2023-05-13T20:23:10.240Z,12.77
2023-05-13T20:25:37.835Z,11.68
2023-05-13T20:28:05.600Z,11.93
2023-05-13T20:30:33.187Z,12.40
2023-05-13T20:33:01.060Z,11.85
2023-05-13T20:35:30.272Z,12.20
2023-05-13T20:37:58.528Z,14.38
2023-05-13T20:40:26.183Z,13.93
2023-05-13T20:42:55.692Z,12.98
2023-05-13T20:45:23.452Z,12.43
2023-05-13T20:47:51.140Z,12.18
2023-05-13T20:50:18.917Z,13.98
2023-05-13T20:52:47.878Z,14.63
2023-05-13T20:55:15.745Z,13.20
2023-05-13T20:57:44.149Z,14.00
2023-05-13T21:00:13.004Z,12.60
2023-05-13T21:02:41.656Z,12.98
2023-05-13T21:05:09.656Z,12.48
2023-05-13T21:07:37.286Z,12.40
2023-05-13T21:10:07.552Z,13.95
2023-05-13T21:12:35.210Z,13.68
2023-05-13T21:15:02.828Z,14.10
2023-05-13T21:17:30.550Z,14.43
2023-05-13T21:19:58.361Z,17.08
2023-05-13T21:22:26.109Z,16.70
2023-05-13T21:24:53.733Z,17.60
2023-05-13T21:27:22.710Z,17.25
2023-05-13T21:29:50.327Z,19.58
2023-05-13T21:32:17.944Z,17.30
2023-05-13T21:34:45.560Z,14.80
2023-05-13T21:37:13.232Z,12.95
2023-05-13T21:39:41.237Z,11.63
2023-05-13T21:42:09.002Z,10.52
2023-05-13T21:44:37.977Z,10.63
2023-05-13T21:47:05.855Z,10.63
2023-05-13T21:49:33.632Z,10.35
2023-05-13T21:52:01.259Z,10.63
2023-05-13T21:54:28.926Z,9.90
2023-05-13T21:56:56.544Z,9.18
2023-05-13T21:59:24.176Z,9.65
2023-05-13T22:01:53.160Z,9.07
2023-05-13T22:04:20.829Z,9.25
2023-05-13T22:06:48.410Z,9.65
2023-05-13T22:09:16.071Z,9.60
2023-05-13T22:11:43.726Z,9.98
2023-05-13T22:14:11.318Z,10.00
2023-05-13T22:16:39.026Z,9.80
2023-05-13T22:19:08.215Z,9.80
2023-05-13T22:21:35.967Z,9.85
2023-05-13T22:24:04.995Z,9.45
2023-05-13T22:26:32.680Z,9.70
2023-05-13T22:29:00.324Z,9.40
2023-05-13T22:31:27.967Z,9.32
2023-05-13T22:33:55.614Z,9.43
2023-05-13T22:36:24.535Z,8.80
2023-05-13T22:38:52.143Z,10.05
2023-05-13T22:41:23.544Z,10.52
2023-05-13T22:43:51.290Z,11.52
2023-05-13T22:46:18.912Z,12.80
2023-05-13T22:48:46.586Z,11.27
2023-05-13T22:51:14.231Z,10.85
2023-05-13T22:53:43.226Z,10.20
2023-05-13T22:56:10.810Z,10.40
2023-05-13T22:58:38.430Z,10.82
2023-05-13T23:01:06.073Z,10.15
2023-05-13T23:03:33.696Z,11.23
2023-05-13T23:06:01.277Z,10.50
2023-05-13T23:08:28.900Z,11.13
2023-05-13T23:10:58.075Z,10.70
2023-05-13T23:13:25.904Z,11.02
2023-05-13T23:15:53.523Z,11.95
2023-05-13T23:18:21.164Z,10.55
2023-05-13T23:20:50.661Z,11.82
2023-05-13T23:23:18.330Z,11.73
2023-05-13T23:25:45.994Z,10.95
2023-05-13T23:28:15.135Z,12.25
2023-05-13T23:30:43.264Z,13.27
2023-05-13T23:33:10.896Z,13.15
2023-05-13T23:35:38.529Z,13.85
2023-05-13T23:38:06.167Z,12.60
2023-05-13T23:40:33.770Z,12.95
2023-05-13T23:43:01.370Z,12.20
2023-05-13T23:45:30.343Z,13.27
2023-05-13T23:47:58.038Z,12.25
2023-05-13T23:50:25.838Z,13.20
2023-05-13T23:52:53.691Z,13.20
2023-05-13T23:55:21.512Z,13.32
2023-05-13T23:57:49.173Z,12.82
